Time;durP1;ratioP1;P1;durP2;ratioP2;P2;SDS_P1;SDS_P2;PMS_P1;PMS_P2;Temp;Humidity;BMP_temperature;BMP_pressure;BME280_temperature;BME280_humidity;BME280_pressure;Samples;Min_cycle;Max_cycle;Signal;HPM_P1;HPM_P2
2021/11/21 00:02:13;;;;;;;0.20;0.20;;;;;;;7.36;100.00;100339.84;5059546;28;20044;-79
2021/11/21 00:04:46;;;;;;;0.20;0.20;;;;;;;7.43;100.00;100338.53;5050203;28;20052;-79
2021/11/21 00:07:15;;;;;;;0.20;0.20;;;;;;;7.50;100.00;100338.28;5051213;28;20449;-79
2021/11/21 00:09:49;;;;;;;0.30;0.30;;;;;;;7.45;100.00;100327.44;5051578;28;20119;-80
2021/11/21 00:12:24;;;;;;;0.17;0.17;;;;;;;7.51;100.00;100322.84;5049433;28;20122;-79
2021/11/21 00:14:57;;;;;;;0.30;0.30;;;;;;;7.54;100.00;100314.19;5050481;28;20052;-79
2021/11/21 00:17:30;;;;;;;0.20;0.20;;;;;;;7.47;100.00;100319.84;5056488;28;20048;-79
2021/11/21 00:20:05;;;;;;;0.10;0.10;;;;;;;7.42;100.00;100317.16;5051450;28;20044;-79
2021/11/21 00:22:39;;;;;;;0.20;0.20;;;;;;;7.47;100.00;100319.84;5056357;28;20056;-81
2021/11/21 00:25:12;;;;;;;0.20;0.20;;;;;;;7.45;100.00;100314.69;5058874;28;20048;-79
2021/11/21 00:27:47;;;;;;;0.20;0.20;;;;;;;7.46;100.00;100312.81;5061222;28;20393;-79
2021/11/21 00:30:20;;;;;;;0.20;0.20;;;;;;;7.51;100.00;100314.72;5063005;28;20056;-80
2021/11/21 00:32:53;;;;;;;0.15;0.15;;;;;;;7.55;100.00;100316.63;5062742;28;20056;-80
2021/11/21 00:35:27;;;;;;;0.28;0.28;;;;;;;7.54;100.00;100306.88;5057195;28;20056;-79
2021/11/21 00:38:01;;;;;;;0.30;0.30;;;;;;;7.48;100.00;100295.25;5055846;28;20052;-80
2021/11/21 00:40:35;;;;;;;0.20;0.20;;;;;;;7.48;100.00;100297.94;5056504;28;20041;-79
2021/11/21 00:43:10;;;;;;;0.22;0.22;;;;;;;7.49;100.00;100291.44;5051883;28;20057;-79
2021/11/21 00:45:43;;;;;;;0.20;0.20;;;;;;;7.51;100.00;100283.03;5061906;28;20049;-79
2021/11/21 00:48:20;;;;;;;0.20;0.20;;;;;;;7.51;100.00;100279.53;5063552;28;20048;-79
2021/11/21 00:50:58;;;;;;;0.20;0.20;;;;;;;7.46;100.00;100283.84;5065823;28;20048;-81
2021/11/21 00:53:27;;;;;;;0.20;0.20;;;;;;;7.40;100.00;100275.97;5068551;28;20063;-79
2021/11/21 00:56:04;;;;;;;0.20;0.20;;;;;;;7.41;100.00;100273.00;5061360;28;20056;-79
2021/11/21 00:58:35;;;;;;;0.20;0.20;;;;;;;7.49;100.00;100277.88;5063312;28;20079;-79
2021/11/21 01:01:08;;;;;;;0.20;0.20;;;;;;;7.54;100.00;100278.97;5061486;28;20049;-81
2021/11/21 01:03:43;;;;;;;0.20;0.20;;;;;;;7.45;100.00;100265.97;5065566;28;20041;-80
2021/11/21 01:06:11;;;;;;;0.20;0.20;;;;;;;7.39;100.00;100266.22;5062154;28;20044;-79
2021/11/21 01:08:44;;;;;;;0.20;0.20;;;;;;;7.48;100.00;100262.75;5061441;28;20057;-79
2021/11/21 01:11:18;;;;;;;0.20;0.20;;;;;;;7.42;100.00;100268.41;5065541;28;20052;-80
2021/11/21 01:13:47;;;;;;;0.20;0.20;;;;;;;7.45;100.00;100257.84;5068028;28;20048;-80
2021/11/21 01:16:21;;;;;;;0.20;0.20;;;;;;;7.35;100.00;100263.25;5068512;28;20053;-79
2021/11/21 01:18:54;;;;;;;0.20;0.20;;;;;;;7.41;100.00;100259.47;5071686;28;20555;-79
2021/11/21 01:21:22;;;;;;;0.30;0.30;;;;;;;7.46;100.00;100256.78;5071035;28;20053;-80
2021/11/21 01:23:55;;;;;;;0.20;0.20;;;;;;;7.40;100.00;100252.44;5070584;28;20060;-79
2021/11/21 01:26:29;;;;;;;0.20;0.20;;;;;;;7.29;100.00;100254.31;5069008;28;20055;-79
2021/11/21 01:28:58;;;;;;;0.20;0.20;;;;;;;7.39;100.00;100250.81;5066346;28;20095;-78
2021/11/21 01:31:32;;;;;;;0.20;0.20;;;;;;;7.38;100.00;100249.19;5068752;28;20392;-80
2021/11/21 01:34:00;;;;;;;0.30;0.30;;;;;;;7.38;100.00;100234.84;5070160;28;20373;-80
2021/11/21 01:36:33;;;;;;;0.20;0.20;;;;;;;7.48;100.00;100238.38;5070110;28;20393;-79
2021/11/21 01:39:01;;;;;;;0.20;0.20;;;;;;;7.45;100.00;100238.09;5071615;28;20049;-80
2021/11/21 01:41:36;;;;;;;0.30;0.30;;;;;;;7.48;100.00;100224.84;5071289;28;20045;-79
2021/11/21 01:44:10;;;;;;;0.20;0.20;;;;;;;7.53;100.00;100229.44;5069157;28;20049;-80
2021/11/21 01:46:40;;;;;;;0.20;0.20;;;;;;;7.52;100.00;100222.38;5070115;28;20048;-79
2021/11/21 01:49:13;;;;;;;0.20;0.20;;;;;;;7.44;100.00;100212.94;5064822;28;20047;-80
2021/11/21 01:51:41;;;;;;;0.20;0.20;;;;;;;7.43;100.00;100207.75;5065028;28;20075;-79
2021/11/21 01:54:10;;;;;;;0.20;0.20;;;;;;;7.43;100.00;100213.16;5067875;28;20056;-80
2021/11/21 01:56:45;;;;;;;0.20;0.20;;;;;;;7.42;100.00;100209.66;5068797;28;20049;-79
2021/11/21 01:59:15;;;;;;;0.20;0.20;;;;;;;7.45;100.00;100201.00;5065229;28;20048;-81
2021/11/21 02:01:48;;;;;;;0.20;0.20;;;;;;;7.41;100.00;100201.81;5068853;28;20404;-79
2021/11/21 02:04:21;;;;;;;0.20;0.20;;;;;;;7.44;100.00;100195.84;5064487;28;20059;-79
2021/11/21 02:06:54;;;;;;;0.20;0.20;;;;;;;7.38;100.00;100189.63;5067958;28;20055;-80
2021/11/21 02:09:28;;;;;;;0.20;0.20;;;;;;;7.44;100.00;100196.69;5066688;28;20063;-79
2021/11/21 02:12:01;;;;;;;0.20;0.20;;;;;;;7.48;100.00;100200.47;5066981;28;20048;-80
2021/11/21 02:14:36;;;;;;;0.30;0.30;;;;;;;7.45;100.00;100192.88;5065719;28;20048;-79
2021/11/21 02:17:06;;;;;;;0.20;0.20;;;;;;;7.39;100.00;100191.25;5062617;28;20052;-80
2021/11/21 02:19:35;;;;;;;0.20;0.20;;;;;;;7.42;100.00;100176.38;5065155;28;20063;-79
2021/11/21 02:22:04;;;;;;;0.38;0.30;;;;;;;7.39;100.00;100172.31;5065757;28;20056;-79
2021/11/21 02:24:38;;;;;;;0.20;0.20;;;;;;;7.42;100.00;100160.94;5065383;28;20075;-80
2021/11/21 02:27:15;;;;;;;0.20;0.20;;;;;;;7.37;100.00;100155.50;5061369;28;20404;-80
2021/11/21 02:29:48;;;;;;;0.30;0.30;;;;;;;7.43;100.00;100154.44;5066523;28;20040;-81
2021/11/21 02:32:22;;;;;;;0.20;0.20;;;;;;;7.40;100.00;100146.03;5066850;28;20044;-79
2021/11/21 02:34:55;;;;;;;0.30;0.30;;;;;;;7.38;100.00;100150.94;5067128;28;20056;-80
2021/11/21 02:37:30;;;;;;;0.20;0.20;;;;;;;7.31;100.00;100153.91;5066978;28;20060;-80
2021/11/21 02:40:04;;;;;;;0.20;0.20;;;;;;;7.34;100.00;100145.22;5066893;28;20049;-79
2021/11/21 02:42:38;;;;;;;0.20;0.20;;;;;;;7.35;100.00;100135.19;5066332;28;20057;-80
2021/11/21 02:45:16;;;;;;;0.20;0.20;;;;;;;7.33;100.00;100151.72;5067626;28;20079;-80
2021/11/21 02:47:49;;;;;;;0.20;0.20;;;;;;;7.31;100.00;100152.00;5067251;28;20052;-80
2021/11/21 02:50:21;;;;;;;0.20;0.20;;;;;;;7.37;100.00;100150.09;5066940;28;20405;-80
2021/11/21 02:52:52;;;;;;;0.20;0.20;;;;;;;7.31;100.00;100149.28;5066883;28;20048;-80
2021/11/21 02:55:27;;;;;;;0.20;0.20;;;;;;;7.24;100.00;100135.22;5068485;28;20053;-78
2021/11/21 02:58:02;;;;;;;0.20;0.20;;;;;;;7.24;100.00;100139.84;5067149;28;20055;-79
2021/11/21 03:00:37;;;;;;;0.20;0.20;;;;;;;7.18;100.00;100136.31;5069383;28;20055;-80
2021/11/21 03:03:13;;;;;;;0.20;0.20;;;;;;;7.20;100.00;100142.25;5068673;28;20408;-80
2021/11/21 03:05:46;;;;;;;0.20;0.20;;;;;;;7.12;100.00;100127.34;5065128;28;20053;-80
2021/11/21 03:08:21;;;;;;;0.20;0.20;;;;;;;7.09;100.00;100137.94;5068821;28;20056;-78
2021/11/21 03:10:55;;;;;;;0.20;0.20;;;;;;;7.20;100.00;100138.75;5063919;28;20075;-78
2021/11/21 03:13:28;;;;;;;0.22;0.22;;;;;;;7.11;100.00;100133.03;5066005;28;20488;-78
2021/11/21 03:15:56;;;;;;;0.20;0.20;;;;;;;7.11;100.00;100138.44;5065350;28;20044;-78
2021/11/21 03:18:24;;;;;;;0.20;0.20;;;;;;;7.13;100.00;100131.69;5065393;28;20504;-78
2021/11/21 03:20:58;;;;;;;0.20;0.20;;;;;;;7.12;100.00;100132.78;5080921;28;20048;-78
2021/11/21 03:23:33;;;;;;;0.20;0.20;;;;;;;7.17;100.00;100129.28;5066267;28;20044;-78
2021/11/21 03:26:01;;;;;;;0.20;0.20;;;;;;;7.11;100.00;100122.22;5067773;28;20048;-78
2021/11/21 03:28:35;;;;;;;0.20;0.20;;;;;;;7.17;100.00;100134.69;5065107;28;20040;-79
2021/11/21 03:31:08;;;;;;;0.20;0.20;;;;;;;7.11;100.00;100131.16;5068587;28;20067;-79
2021/11/21 03:33:42;;;;;;;0.20;0.20;;;;;;;7.05;100.00;100126.81;5067382;28;20079;-79
2021/11/21 03:36:15;;;;;;;0.20;0.20;;;;;;;7.08;100.00;100139.00;5066361;28;20064;-79
2021/11/21 03:38:45;;;;;;;0.20;0.20;;;;;;;7.04;100.00;100122.47;5066415;28;20052;-79
2021/11/21 03:41:18;;;;;;;0.20;0.20;;;;;;;7.09;100.00;100127.09;5067167;28;20048;-79
2021/11/21 03:43:51;;;;;;;0.30;0.30;;;;;;;7.14;100.00;100127.13;5069069;28;20048;-79
2021/11/21 03:46:25;;;;;;;0.30;0.30;;;;;;;7.12;100.00;100129.25;5066623;28;20401;-79
2021/11/21 03:48:53;;;;;;;0.30;0.30;;;;;;;7.19;100.00;100126.28;5067270;28;20051;-79
2021/11/21 03:51:21;;;;;;;0.20;0.20;;;;;;;7.08;100.00;100139.81;5066308;28;20527;-79
2021/11/21 03:53:56;;;;;;;0.20;0.20;;;;;;;7.08;100.00;100128.97;5068184;28;20051;-78
2021/11/21 03:56:30;;;;;;;0.20;0.20;;;;;;;7.10;100.00;100118.72;5067731;28;20408;-78
2021/11/21 03:59:03;;;;;;;0.20;0.20;;;;;;;7.09;100.00;100130.59;5067280;28;20123;-79
2021/11/21 04:01:32;;;;;;;0.20;0.20;;;;;;;7.11;100.00;100136.59;5066673;28;20040;-78
2021/11/21 04:04:06;;;;;;;0.10;0.10;;;;;;;7.14;100.00;100144.16;5066896;28;20052;-80
2021/11/21 04:06:35;;;;;;;0.20;0.20;;;;;;;7.12;100.00;100137.38;5066632;28;20041;-79
2021/11/21 04:09:10;;;;;;;0.20;0.20;;;;;;;7.21;100.00;100134.94;5068274;28;20096;-79
2021/11/21 04:11:43;;;;;;;0.20;0.20;;;;;;;7.19;100.00;100137.13;5068542;28;20043;-79
2021/11/21 04:14:17;;;;;;;0.20;0.20;;;;;;;7.19;100.00;100129.00;5068432;28;20044;-79
2021/11/21 04:16:51;;;;;;;0.13;0.13;;;;;;;7.11;100.00;100122.22;5066039;28;20048;-80
2021/11/21 04:19:25;;;;;;;0.20;0.20;;;;;;;7.27;100.00;100128.47;5061535;28;20428;-79
2021/11/21 04:22:01;;;;;;;0.20;0.20;;;;;;;7.15;100.00;100132.25;5064145;28;20044;-79
2021/11/21 04:24:36;;;;;;;0.20;0.20;;;;;;;7.08;100.00;100126.28;5065259;28;20067;-79
2021/11/21 04:27:11;;;;;;;0.20;0.20;;;;;;;7.04;100.00;100127.91;5065297;28;20048;-78
2021/11/21 04:29:39;;;;;;;0.28;0.28;;;;;;;7.06;100.00;100116.81;5063842;28;20056;-79
2021/11/21 04:32:13;;;;;;;0.20;0.20;;;;;;;7.04;100.00;100122.47;5068201;28;20408;-79
2021/11/21 04:34:46;;;;;;;0.25;0.25;;;;;;;7.09;100.00;100122.50;5058996;28;20048;-79
2021/11/21 04:37:20;;;;;;;0.20;0.20;;;;;;;7.02;100.00;100121.97;5065342;28;20055;-79
2021/11/21 04:39:49;;;;;;;0.20;0.20;;;;;;;7.03;100.00;100122.75;5064235;28;20045;-79
2021/11/21 04:42:23;;;;;;;0.20;0.20;;;;;;;6.94;100.00;100122.50;5059554;28;20057;-80
2021/11/21 04:44:56;;;;;;;0.20;0.20;;;;;;;6.94;100.00;100122.50;5065766;28;20041;-78
2021/11/21 04:47:29;;;;;;;0.20;0.20;;;;;;;6.89;100.00;100115.19;5063575;28;20059;-78
2021/11/21 04:50:03;;;;;;;0.30;0.30;;;;;;;6.90;100.00;100116.00;5062159;28;20346;-79
2021/11/21 04:52:37;;;;;;;0.20;0.20;;;;;;;6.89;100.00;100108.94;5063221;28;20405;-79
2021/11/21 04:55:13;;;;;;;0.20;0.20;;;;;;;6.81;100.00;100102.19;5060741;28;20050;-79
2021/11/21 04:57:46;;;;;;;0.20;0.20;;;;;;;6.88;100.00;100108.16;5066858;28;20047;-79
2021/11/21 05:00:19;;;;;;;0.20;0.20;;;;;;;6.88;100.00;100107.34;5064195;28;20049;-79
2021/11/21 05:02:53;;;;;;;0.20;0.20;;;;;;;6.89;100.00;100106.25;5066408;28;20048;-79
2021/11/21 05:05:27;;;;;;;0.10;0.10;;;;;;;6.84;100.00;100104.34;5060959;28;20056;-80
2021/11/21 05:08:00;;;;;;;0.20;0.20;;;;;;;6.81;100.00;100108.41;5065402;28;20488;-78
2021/11/21 05:10:35;;;;;;;0.20;0.20;;;;;;;6.79;100.00;100107.06;5061041;28;20523;-78
2021/11/21 05:13:08;;;;;;;0.20;0.20;;;;;;;6.72;100.00;100095.69;5065510;28;20123;-79
2021/11/21 05:15:41;;;;;;;0.20;0.20;;;;;;;6.75;100.00;100105.97;5062272;28;20048;-78
2021/11/21 05:18:15;;;;;;;0.20;0.20;;;;;;;6.75;100.00;100106.78;5083845;28;20044;-78
2021/11/21 05:20:48;;;;;;;0.20;0.20;;;;;;;6.69;100.00;100097.03;5069367;28;20055;-79
2021/11/21 05:23:21;;;;;;;0.20;0.20;;;;;;;6.72;100.00;100101.91;5059318;28;20048;-78
2021/11/21 05:25:51;;;;;;;0.22;0.22;;;;;;;6.71;100.00;100096.75;5064205;28;20045;-78
2021/11/21 05:28:24;;;;;;;0.20;0.20;;;;;;;6.72;100.00;100092.97;5066810;28;20543;-78
2021/11/21 05:30:58;;;;;;;0.20;0.20;;;;;;;6.69;100.00;100097.03;5065684;28;20048;-79
2021/11/21 05:33:31;;;;;;;0.20;0.20;;;;;;;6.59;100.00;100084.31;5064780;28;20385;-79
2021/11/21 05:36:04;;;;;;;0.30;0.30;;;;;;;6.69;100.00;100099.72;5051838;28;20059;-78
2021/11/21 05:38:38;;;;;;;0.30;0.30;;;;;;;6.66;100.00;100092.16;5067439;28;20052;-78
2021/11/21 05:41:13;;;;;;;0.20;0.20;;;;;;;6.69;100.00;100113.25;5062063;28;20037;-78
2021/11/21 05:43:47;;;;;;;0.20;0.20;;;;;;;6.72;100.00;100106.50;5065897;28;20049;-79
2021/11/21 05:46:20;;;;;;;0.20;0.20;;;;;;;6.67;100.00;100096.50;5064283;28;20055;-79
2021/11/21 05:48:53;;;;;;;0.20;0.20;;;;;;;6.72;100.00;100111.91;5064219;28;20075;-78
2021/11/21 05:51:26;;;;;;;0.17;0.17;;;;;;;6.77;100.00;100103.81;5073986;28;20049;-78
2021/11/21 05:53:59;;;;;;;0.20;0.20;;;;;;;6.76;100.00;100107.59;5062811;28;20067;-78
2021/11/21 05:56:34;;;;;;;0.20;0.20;;;;;;;6.77;100.00;100111.94;5064300;28;20044;-79
2021/11/21 05:59:08;;;;;;;0.20;0.20;;;;;;;6.75;100.00;100112.19;5082044;28;20412;-78
2021/11/21 06:01:41;;;;;;;0.20;0.20;;;;;;;6.76;100.00;100108.41;5067092;28;20403;-78
2021/11/21 06:04:14;;;;;;;0.20;0.20;;;;;;;6.78;100.00;100108.94;5066845;28;20057;-79
2021/11/21 06:06:47;;;;;;;0.20;0.20;;;;;;;6.78;100.00;100116.25;5068550;28;20504;-79
2021/11/21 06:09:16;;;;;;;0.20;0.20;;;;;;;6.80;100.00;100114.09;5070081;28;20067;-78
2021/11/21 06:11:51;;;;;;;0.20;0.20;;;;;;;6.83;100.00;100104.63;5069425;28;20067;-79
2021/11/21 06:14:24;;;;;;;0.30;0.30;;;;;;;6.77;100.00;100110.03;5070229;28;20052;-79
2021/11/21 06:16:58;;;;;;;0.20;0.20;;;;;;;6.83;100.00;100113.53;5070816;28;20393;-79
2021/11/21 06:19:26;;;;;;;0.20;0.20;;;;;;;6.82;100.00;100114.63;5071224;28;20380;-79
2021/11/21 06:21:54;;;;;;;0.30;0.30;;;;;;;6.79;100.00;100099.78;5069558;28;20075;-79
2021/11/21 06:24:29;;;;;;;0.20;0.20;;;;;;;6.80;100.00;100098.66;5071613;28;20049;-79
2021/11/21 06:26:59;;;;;;;0.30;0.30;;;;;;;6.75;100.00;100109.50;5069959;28;20056;-78
2021/11/21 06:29:33;;;;;;;0.20;0.20;;;;;;;6.83;100.00;100102.72;5072317;28;20036;-78
2021/11/21 06:32:07;;;;;;;0.20;0.20;;;;;;;6.80;100.00;100105.97;5068470;28;20056;-79
2021/11/21 06:34:40;;;;;;;0.20;0.20;;;;;;;6.82;100.00;100103.81;5070992;28;20052;-78
2021/11/21 06:37:13;;;;;;;0.20;0.20;;;;;;;6.87;100.00;100103.00;5069125;28;20068;-79
2021/11/21 06:39:47;;;;;;;0.20;0.20;;;;;;;6.88;100.00;100112.75;5071298;28;20056;-80
2021/11/21 06:42:21;;;;;;;0.25;0.25;;;;;;;6.85;100.00;100118.69;5071146;28;20055;-79
2021/11/21 06:44:55;;;;;;;0.20;0.20;;;;;;;6.88;100.00;100112.75;5069859;28;20051;-79
2021/11/21 06:47:28;;;;;;;0.20;0.20;;;;;;;6.90;100.00;100116.78;5073242;28;20048;-79
2021/11/21 06:50:02;;;;;;;0.20;0.20;;;;;;;6.86;100.00;100118.41;5069051;28;20390;-78
2021/11/21 06:52:36;;;;;;;0.30;0.30;;;;;;;6.83;100.00;100113.53;5069166;28;20056;-79
2021/11/21 06:55:11;;;;;;;0.30;0.30;;;;;;;6.89;100.00;100120.59;5070398;28;20044;-79
2021/11/21 06:57:46;;;;;;;0.30;0.30;;;;;;;6.82;100.00;100111.91;5070898;28;20495;-79
2021/11/21 07:00:19;;;;;;;0.20;0.20;;;;;;;6.89;100.00;100120.59;5070234;28;20039;-78
2021/11/21 07:02:48;;;;;;;0.20;0.20;;;;;;;6.84;100.00;100127.91;5065850;28;20059;-78
2021/11/21 07:05:21;;;;;;;0.20;0.20;;;;;;;6.83;100.00;100115.44;5067324;28;20043;-79
2021/11/21 07:07:55;;;;;;;0.30;0.30;;;;;;;6.81;100.00;100123.84;5070145;28;20405;-80
2021/11/21 07:10:23;;;;;;;0.20;0.20;;;;;;;6.81;100.00;100119.22;5068401;28;20051;-79
2021/11/21 07:12:58;;;;;;;0.30;0.30;;;;;;;6.80;100.00;100133.81;5067453;28;20051;-79
2021/11/21 07:15:27;;;;;;;0.20;0.20;;;;;;;6.77;100.00;100133.56;5068430;28;20408;-79
2021/11/21 07:18:00;;;;;;;0.25;0.25;;;;;;;6.77;100.00;100130.84;5065137;28;20053;-79
2021/11/21 07:20:33;;;;;;;0.20;0.20;;;;;;;6.84;100.00;100138.72;5059659;28;20048;-79
2021/11/21 07:23:02;;;;;;;0.20;0.20;;;;;;;6.83;100.00;100132.47;5069512;28;20036;-80
2021/11/21 07:25:35;;;;;;;0.20;0.20;;;;;;;6.83;100.00;100139.78;5066673;28;20075;-79
2021/11/21 07:28:04;;;;;;;0.20;0.20;;;;;;;6.78;100.00;100146.81;5067733;28;20056;-79
2021/11/21 07:30:37;;;;;;;0.20;0.20;;;;;;;6.88;100.00;100145.22;5068543;28;20037;-79
2021/11/21 07:33:06;;;;;;;0.20;0.20;;;;;;;6.81;100.00;100148.19;5068493;28;20056;-80
2021/11/21 07:35:39;;;;;;;0.20;0.20;;;;;;;6.75;100.00;100138.41;5067041;28;20071;-80
2021/11/21 07:38:12;;;;;;;0.20;0.20;;;;;;;6.87;100.00;100155.22;5065227;28;20492;-78
2021/11/21 07:40:45;;;;;;;0.20;0.20;;;;;;;6.88;100.00;100150.63;5063074;28;20428;-79
2021/11/21 07:43:15;;;;;;;0.20;0.20;;;;;;;6.81;100.00;100140.88;5070562;28;20444;-79
2021/11/21 07:45:49;;;;;;;0.20;0.20;;;;;;;6.86;100.00;100150.06;5062616;28;20048;-80
2021/11/21 07:48:23;;;;;;;0.30;0.30;;;;;;;6.83;100.00;100150.59;5071489;28;20048;-80
2021/11/21 07:50:57;;;;;;;0.20;0.20;;;;;;;6.76;100.00;100154.38;5066184;28;20044;-79
2021/11/21 07:53:31;;;;;;;0.20;0.20;;;;;;;6.79;100.00;100159.25;5063387;28;20048;-79
2021/11/21 07:56:06;;;;;;;0.20;0.20;;;;;;;6.77;100.00;100166.03;5063471;28;20503;-79
2021/11/21 07:58:35;;;;;;;0.20;0.20;;;;;;;6.80;100.00;100163.56;5059978;28;20056;-79
2021/11/21 08:01:09;;;;;;;0.20;0.20;;;;;;;6.78;100.00;100157.63;5064074;28;20047;-80
2021/11/21 08:03:42;;;;;;;0.20;0.20;;;;;;;6.75;100.00;100169.00;5062563;28;20053;-79
2021/11/21 08:06:11;;;;;;;0.20;0.20;;;;;;;6.76;100.00;100154.38;5060968;28;20048;-78
2021/11/21 08:08:45;;;;;;;0.20;0.20;;;;;;;6.83;100.00;100164.13;5062560;28;20765;-79
2021/11/21 08:11:13;;;;;;;0.30;0.30;;;;;;;6.84;100.00;100163.06;5074779;28;20056;-79
2021/11/21 08:13:47;;;;;;;0.20;0.20;;;;;;;6.85;100.00;100170.06;5060403;28;20064;-79
2021/11/21 08:16:23;;;;;;;0.20;0.20;;;;;;;6.86;100.00;100171.72;5055689;28;20059;-79
2021/11/21 08:18:56;;;;;;;0.20;0.20;;;;;;;6.90;100.00;100176.31;5055168;28;20052;-80
2021/11/21 08:21:24;;;;;;;0.30;0.30;;;;;;;6.92;100.00;100173.34;5057088;28;20590;-80
2021/11/21 08:23:58;;;;;;;0.20;0.20;;;;;;;6.96;100.00;100177.94;5057822;28;20049;-81
2021/11/21 08:26:31;;;;;;;0.20;0.20;;;;;;;7.05;100.00;100172.81;5054658;28;20047;-81
2021/11/21 08:29:06;;;;;;;0.30;0.30;;;;;;;7.09;100.00;100170.41;5055994;28;20044;-80
2021/11/21 08:31:34;;;;;;;0.22;0.22;;;;;;;7.16;100.00;100168.22;5052881;28;20045;-80
2021/11/21 08:34:08;;;;;;;0.20;0.20;;;;;;;7.06;100.00;100152.81;5060064;28;20045;-80
2021/11/21 08:36:42;;;;;;;0.20;0.20;;;;;;;7.09;100.00;100171.19;5056223;28;20053;-80
2021/11/21 08:39:15;;;;;;;0.28;0.28;;;;;;;7.10;100.00;100175.53;5058899;28;20055;-79
2021/11/21 08:41:48;;;;;;;0.20;0.20;;;;;;;7.11;100.00;100182.59;5058275;28;20032;-79
2021/11/21 08:44:23;;;;;;;0.22;0.22;;;;;;;7.14;100.00;100183.94;5058904;28;20048;-80
2021/11/21 08:46:52;;;;;;;0.30;0.30;;;;;;;7.15;100.00;100174.72;5063864;28;20059;-80
2021/11/21 08:49:25;;;;;;;0.28;0.28;;;;;;;7.15;100.00;100185.53;5068115;28;20041;-80
2021/11/21 08:51:59;;;;;;;0.20;0.20;;;;;;;7.15;100.00;100166.59;5062225;28;20250;-80
2021/11/21 08:54:32;;;;;;;0.20;0.20;;;;;;;7.14;100.00;100175.81;5059984;28;20505;-80
2021/11/21 08:57:06;;;;;;;0.30;0.30;;;;;;;7.16;100.00;100181.75;5056900;28;20048;-80
2021/11/21 08:59:35;;;;;;;0.30;0.30;;;;;;;7.09;100.00;100183.94;5060750;28;20052;-78
2021/11/21 09:02:09;;;;;;;0.20;0.20;;;;;;;7.07;100.00;100178.78;5057899;28;20400;-78
2021/11/21 09:04:42;;;;;;;0.28;0.28;;;;;;;7.03;100.00;100190.41;5064056;28;20508;-78
2021/11/21 09:07:16;;;;;;;0.20;0.20;;;;;;;7.01;100.00;100187.16;5057363;28;20052;-78
2021/11/21 09:09:46;;;;;;;0.30;0.30;;;;;;;6.95;100.00;100183.63;5061793;28;20048;-79
2021/11/21 09:12:19;;;;;;;0.20;0.20;;;;;;;7.00;100.00;100190.94;5063706;28;20049;-78
2021/11/21 09:14:49;;;;;;;0.20;0.20;;;;;;;6.89;100.00;100171.16;5065009;28;20485;-79
2021/11/21 09:17:17;;;;;;;0.20;0.20;;;;;;;6.94;100.00;100193.63;5064420;28;20059;-77
2021/11/21 09:19:45;;;;;;;0.20;0.20;;;;;;;6.90;100.00;100191.72;5062986;28;20057;-79
2021/11/21 09:22:19;;;;;;;0.30;0.30;;;;;;;6.90;100.00;100199.84;5062476;28;20051;-78
2021/11/21 09:24:52;;;;;;;0.20;0.20;;;;;;;6.92;100.00;100203.13;5059128;28;20465;-79
2021/11/21 09:27:20;;;;;;;0.20;0.20;;;;;;;6.95;100.00;100203.38;5057075;28;20063;-79
2021/11/21 09:29:50;;;;;;;0.20;0.20;;;;;;;6.96;100.00;100198.75;5061537;28;20412;-78
2021/11/21 09:32:24;;;;;;;0.30;0.30;;;;;;;6.96;100.00;100190.66;5061317;28;20053;-78
2021/11/21 09:34:52;;;;;;;0.30;0.30;;;;;;;7.02;100.00;100192.31;5059763;28;20085;-78
2021/11/21 09:37:25;;;;;;;0.20;0.20;;;;;;;7.04;100.00;100198.25;5066084;28;20044;-79
2021/11/21 09:39:59;;;;;;;0.22;0.22;;;;;;;7.04;100.00;100202.84;5068422;28;20056;-78
2021/11/21 09:42:33;;;;;;;0.20;0.20;;;;;;;7.04;100.00;100197.44;5062625;28;20041;-79
2021/11/21 09:45:09;;;;;;;0.20;0.20;;;;;;;7.03;100.00;100206.63;5069205;28;20041;-78
2021/11/21 09:47:38;;;;;;;0.30;0.30;;;;;;;7.02;100.00;100210.44;5065515;28;20044;-79
2021/11/21 09:50:12;;;;;;;0.15;0.15;;;;;;;7.09;100.00;100194.75;5064902;28;20063;-79
2021/11/21 09:52:46;;;;;;;0.30;0.30;;;;;;;7.10;100.00;100190.97;5064597;28;20392;-79
2021/11/21 09:55:21;;;;;;;0.20;0.20;;;;;;;7.10;100.00;100201.78;5057739;28;20066;-77
2021/11/21 09:57:53;;;;;;;0.20;0.20;;;;;;;7.12;100.00;100196.91;5059345;28;20412;-79
2021/11/21 10:00:30;;;;;;;;;;;;;;;7.11;100.00;100201.53;5062531;28;20055;-79
2021/11/21 10:03:05;;;;;;;0.22;0.22;;;;;;;7.13;100.00;100202.06;5058372;28;19927;-79
2021/11/21 10:05:42;;;;;;;0.20;0.20;;;;;;;7.16;100.00;100195.28;5056439;28;20044;-78
2021/11/21 10:08:13;;;;;;;0.20;0.20;;;;;;;7.18;100.00;100198.56;5056971;28;20052;-80
2021/11/21 10:10:48;;;;;;;0.20;0.20;;;;;;;7.22;100.00;100196.94;5057035;28;20040;-79
2021/11/21 10:13:30;;;;;;;0.20;0.20;;;;;;;7.12;100.00;100191.50;5061063;28;20052;-80
2021/11/21 10:16:30;;;;;;;0.30;0.30;;;;;;;7.13;100.00;100196.63;5062867;28;20057;-78
2021/11/21 10:19:02;;;;;;;0.28;0.28;;;;;;;7.10;100.00;100201.78;5063388;28;20053;-79
2021/11/21 10:21:37;;;;;;;0.30;0.30;;;;;;;7.06;100.00;100200.72;5046636;28;20044;-78
2021/11/21 10:24:13;;;;;;;0.20;0.20;;;;;;;7.11;100.00;100200.69;5052993;28;20048;-78
2021/11/21 10:26:46;;;;;;;0.30;0.30;;;;;;;7.11;100.00;100193.41;5045333;28;20056;-80
2021/11/21 10:29:31;;;;;;;0.30;0.30;;;;;;;7.16;100.00;100200.72;5044816;28;20045;-78
2021/11/21 10:32:16;;;;;;;0.20;0.20;;;;;;;7.30;100.00;100190.97;5040172;28;20072;-79
2021/11/21 10:34:54;;;;;;;0.20;0.20;;;;;;;7.28;100.00;100201.25;5041351;28;20059;-80
2021/11/21 10:37:33;;;;;;;0.20;0.20;;;;;;;7.10;100.00;100212.63;5048322;28;20052;-79
2021/11/21 10:40:09;;;;;;;0.20;0.20;;;;;;;6.90;100.00;100213.38;5058861;28;20060;-81
2021/11/21 10:42:39;;;;;;;0.20;0.20;;;;;;;6.89;100.00;100209.88;5039475;28;20079;-81
2021/11/21 10:45:15;;;;;;;0.20;0.20;;;;;;;6.85;100.00;100216.06;5043857;28;20052;-80
2021/11/21 10:47:48;;;;;;;0.20;0.20;;;;;;;6.75;100.00;100206.03;5043885;28;20063;-81
2021/11/21 10:50:28;;;;;;;;;;;;;;;6.70;100.00;100214.94;5045186;28;20048;-81
2021/11/21 10:52:58;;;;;;;0.20;0.20;;;;;;;6.71;100.00;100213.03;5046188;28;19928;-78
2021/11/21 10:55:27;;;;;;;0.20;0.20;;;;;;;6.77;100.00;100218.19;5040236;28;20048;-80
2021/11/21 10:58:10;;;;;;;0.20;0.20;;;;;;;6.65;100.00;100223.03;5046995;28;20051;-80
2021/11/21 11:00:55;;;;;;;0.20;0.20;;;;;;;6.63;100.00;100219.78;5057296;28;20056;-79
2021/11/21 11:03:29;;;;;;;0.20;0.20;;;;;;;6.58;100.00;100222.47;5069729;28;20907;-78
2021/11/21 11:06:27;;;;;;;0.20;0.20;;;;;;;6.56;100.00;100224.59;5065422;28;20103;-80
2021/11/21 11:09:15;;;;;;;0.20;0.20;;;;;;;6.54;100.00;100222.16;5061226;28;20053;-79
2021/11/21 11:11:50;;;;;;;0.20;0.20;;;;;;;6.60;100.00;100223.00;5065446;28;20036;-78
2021/11/21 11:14:23;;;;;;;0.20;0.20;;;;;;;6.71;100.00;100218.44;5062735;28;20045;-79
2021/11/21 11:16:57;;;;;;;0.20;0.20;;;;;;;6.70;100.00;100222.22;5063707;28;20511;-80
2021/11/21 11:19:34;;;;;;;0.20;0.20;;;;;;;6.80;100.00;100220.38;5055843;28;20048;-81
2021/11/21 11:22:03;;;;;;;0.25;0.25;;;;;;;6.91;100.00;100218.50;5065122;28;20052;-80
2021/11/21 11:24:41;;;;;;;0.20;0.20;;;;;;;7.28;100.00;100219.41;5061462;28;20049;-80
2021/11/21 11:27:25;;;;;;;0.22;0.22;;;;;;;7.65;100.00;100221.84;5057131;28;20065;-80
2021/11/21 11:29:54;;;;;;;0.20;0.20;;;;;;;7.76;100.00;100225.38;5042210;28;20052;-80
2021/11/21 11:32:31;;;;;;;0.20;0.20;;;;;;;7.76;100.00;100219.13;5046441;28;20053;-80
2021/11/21 11:35:06;;;;;;;;;;;;;;;7.66;100.00;100222.66;5051785;28;20045;-79
2021/11/21 11:37:46;;;;;;;0.20;0.20;;;;;;;7.41;100.00;100210.72;5038498;28;19931;-79
2021/11/21 11:40:40;;;;;;;0.22;0.22;;;;;;;7.21;100.00;100221.53;5041052;28;20044;-80
2021/11/21 11:43:33;;;;;;;0.20;0.20;;;;;;;7.07;100.00;100216.66;5045832;28;20059;-80
2021/11/21 11:46:21;;;;;;;0.25;0.25;;;;;;;7.01;100.00;100214.22;5055253;28;20045;-80
2021/11/21 11:48:56;;;;;;;0.20;0.20;;;;;;;7.00;100.00;100215.28;5061098;28;20059;-80
2021/11/21 11:51:50;;;;;;;0.30;0.30;;;;;;;6.96;100.00;100215.00;5059948;28;20060;-80
2021/11/21 11:54:29;;;;;;;0.20;0.20;;;;;;;7.00;100.00;100212.59;5055772;28;20417;-78
2021/11/21 11:57:05;;;;;;;0.20;0.20;;;;;;;6.92;100.00;100209.31;5063907;28;20049;-79